Time;durP1;ratioP1;P1;durP2;ratioP2;P2;SDS_P1;SDS_P2;PMS_P1;PMS_P2;Temp;Humidity;BMP_temperature;BMP_pressure;BME280_temperature;BME280_humidity;BME280_pressure;Samples;Min_cycle;Max_cycle;Signal;HPM_P1;HPM_P2
2022/10/02 00:01:45;;;;;;;0.08;0.05;;;;;;;13.09;100.00;101445.88;10417660;28;20094;-78
2022/10/02 00:06:48;;;;;;;0.10;0.10;;;;;;;13.36;100.00;101455.16;10450240;28;20065;-79
2022/10/02 00:11:56;;;;;;;0.82;0.22;;;;;;;13.39;100.00;101469.09;10460630;28;20129;-80
2022/10/02 00:17:00;;;;;;;1.77;1.05;;;;;;;13.53;100.00;101464.19;10464444;28;20041;-79
2022/10/02 00:22:28;;;;;;;0.28;0.28;;;;;;;13.46;100.00;101457.13;10481393;28;20120;-80
2022/10/02 00:27:45;;;;;;;0.15;0.10;;;;;;;13.60;100.00;101455.72;10411231;28;20516;-79
2022/10/02 00:33:15;;;;;;;0.43;0.32;;;;;;;13.56;100.00;101465.97;10399322;28;20052;-80
2022/10/02 00:38:33;;;;;;;0.73;0.40;;;;;;;13.44;100.00;101475.22;10415140;28;20073;-78
2022/10/02 00:43:51;;;;;;;0.22;0.20;;;;;;;13.52;100.00;101462.44;10431706;28;20387;-79
2022/10/02 00:49:06;;;;;;;4.32;0.43;;;;;;;13.54;100.00;101455.59;10415827;28;20049;-79
2022/10/02 00:54:13;;;;;;;0.22;0.13;;;;;;;13.59;100.00;101445.34;10416090;28;20555;-78
2022/10/02 00:59:43;;;;;;;0.55;0.55;;;;;;;13.40;100.00;101451.81;10398582;28;20049;-79
2022/10/02 01:04:46;;;;;;;0.00;0.00;;;;;;;13.45;100.00;101442.44;10374016;28;20069;-79
2022/10/02 01:09:48;;;;;;;2.85;0.47;;;;;;;13.38;100.00;101435.34;10373831;28;20092;-79
2022/10/02 01:14:50;;;;;;;0.43;0.15;;;;;;;13.44;100.00;101433.81;10414966;28;20045;-78
2022/10/02 01:19:53;;;;;;;0.65;0.25;;;;;;;13.28;100.00;101442.91;10415536;28;20121;-78
2022/10/02 01:24:56;;;;;;;0.60;0.38;;;;;;;13.20;100.00;101444.44;10415328;28;20069;-77
2022/10/02 01:30:02;;;;;;;0.82;0.30;;;;;;;13.15;100.00;101446.91;10415138;28;20049;-78
2022/10/02 01:35:05;;;;;;;1.45;0.28;;;;;;;13.06;100.00;101440.66;10415551;28;20046;-78
2022/10/02 01:40:21;;;;;;;0.05;0.05;;;;;;;13.06;100.00;101471.69;10414221;28;20132;-78
2022/10/02 01:45:42;;;;;;;0.00;0.00;;;;;;;12.77;100.00;101489.94;10429942;28;20124;-79
2022/10/02 01:51:07;;;;;;;0.20;0.20;;;;;;;13.09;100.00;101492.44;10415662;28;20042;-78
2022/10/02 01:56:41;;;;;;;0.15;0.10;;;;;;;13.20;100.00;101492.72;10397506;28;20092;-78
2022/10/02 02:01:51;;;;;;;0.68;0.68;;;;;;;13.23;100.00;101506.59;10398063;28;20132;-79
2022/10/02 02:07:24;;;;;;;;;;;;;;;13.41;100.00;101484.63;10415585;28;20056;-78
2022/10/02 02:12:36;;;;;;;0.10;0.10;;;;;;;12.83;100.00;101490.94;10338153;28;20397;-78
2022/10/02 02:17:47;;;;;;;0.03;0.03;;;;;;;12.73;100.00;101503.59;10396141;28;20097;-78
2022/10/02 02:22:51;;;;;;;0.00;0.00;;;;;;;12.89;100.00;101508.34;10413982;28;20041;-79
2022/10/02 02:27:57;;;;;;;0.63;0.25;;;;;;;12.80;100.00;101515.84;10404630;28;20435;-79
2022/10/02 02:33:23;;;;;;;0.10;0.10;;;;;;;13.08;100.00;101514.88;10405162;28;20108;-78
2022/10/02 02:38:30;;;;;;;0.77;0.50;;;;;;;13.07;100.00;101551.06;10434540;28;20080;-78
2022/10/02 02:43:40;;;;;;;0.90;0.40;;;;;;;12.74;100.00;101544.13;10448152;28;20519;-79
2022/10/02 02:48:46;;;;;;;1.30;0.85;;;;;;;12.63;100.00;101632.59;10430085;28;20460;-78
2022/10/02 02:54:00;;;;;;;0.35;0.30;;;;;;;12.69;100.00;101658.66;10403084;28;20124;-78
2022/10/02 02:59:11;;;;;;;0.95;0.40;;;;;;;12.93;100.00;101674.81;10444529;28;20111;-79
2022/10/02 03:04:14;;;;;;;2.38;2.05;;;;;;;13.07;100.00;101706.28;10449308;28;20045;-79
2022/10/02 03:09:18;;;;;;;0.50;0.50;;;;;;;12.92;100.00;101689.44;10419646;28;20124;-79
2022/10/02 03:14:38;;;;;;;0.50;0.50;;;;;;;12.83;100.00;101703.00;10415946;28;20043;-78
2022/10/02 03:19:49;;;;;;;0.60;0.55;;;;;;;12.79;100.00;101696.00;10401866;28;20041;-79
2022/10/02 03:25:06;;;;;;;2.60;1.20;;;;;;;12.74;100.00;101694.09;10419556;28;20060;-79
2022/10/02 03:30:10;;;;;;;1.63;0.80;;;;;;;12.63;100.00;101689.47;10429730;28;20098;-79
2022/10/02 03:35:13;;;;;;;0.63;0.52;;;;;;;12.67;100.00;101688.75;10427801;28;20072;-79
2022/10/02 03:40:15;;;;;;;1.45;0.88;;;;;;;12.54;100.00;101684.03;10405054;28;20045;-79
2022/10/02 03:45:20;;;;;;;3.03;0.80;;;;;;;12.51;100.00;101679.63;10431332;28;20048;-79
2022/10/02 03:50:41;;;;;;;0.25;0.25;;;;;;;12.48;100.00;101683.84;10401021;28;20041;-78
2022/10/02 03:55:48;;;;;;;2.70;0.57;;;;;;;12.49;100.00;101693.34;10418065;28;20096;-78
2022/10/02 04:01:01;;;;;;;0.40;0.40;;;;;;;12.29;100.00;101697.88;10418638;28;20515;-79
2022/10/02 04:06:15;;;;;;;1.65;0.77;;;;;;;12.48;100.00;101704.50;10411787;28;20546;-79
2022/10/02 04:11:30;;;;;;;0.30;0.30;;;;;;;12.45;100.00;101700.13;10459010;28;20131;-79
2022/10/02 04:16:41;;;;;;;0.40;0.30;;;;;;;12.41;100.00;101687.97;10430357;28;20038;-78
2022/10/02 04:21:48;;;;;;;0.00;0.00;;;;;;;12.45;100.00;101700.13;10405294;28;20069;-78
2022/10/02 04:27:14;;;;;;;0.00;0.00;;;;;;;12.54;100.00;101696.97;10418542;28;20551;-78
2022/10/02 04:32:23;;;;;;;0.05;0.05;;;;;;;12.52;100.00;101701.22;10400047;28;20223;-79
2022/10/02 04:37:48;;;;;;;1.67;1.13;;;;;;;12.48;100.00;101699.34;10419354;28;20037;-79
2022/10/02 04:43:00;;;;;;;0.13;0.05;;;;;;;12.54;100.00;101705.59;10425982;28;20068;-77
2022/10/02 04:48:34;;;;;;;0.73;0.35;;;;;;;12.61;100.00;101706.66;10489812;28;20055;-78
2022/10/02 04:54:00;;;;;;;0.75;0.45;;;;;;;12.62;100.00;101707.53;10447954;28;20021;-78
2022/10/02 04:59:21;;;;;;;4.18;2.00;;;;;;;12.54;100.00;101713.34;10416145;28;20057;-79
2022/10/02 05:04:53;;;;;;;0.65;0.55;;;;;;;12.60;100.00;101720.41;10411147;28;20412;-78
2022/10/02 05:10:14;;;;;;;0.70;0.30;;;;;;;12.35;100.00;101724.81;10416580;28;20076;-79
2022/10/02 05:15:43;;;;;;;0.10;0.10;;;;;;;12.69;100.00;101733.63;10416442;28;20496;-78
2022/10/02 05:20:54;;;;;;;11.65;0.93;;;;;;;12.68;100.00;101738.72;10422861;28;20051;-79
2022/10/02 05:26:04;;;;;;;0.10;0.03;;;;;;;12.59;100.00;101728.09;10430789;28;20048;-79
2022/10/02 05:31:40;;;;;;;0.50;0.40;;;;;;;12.56;100.00;101736.66;10414820;28;20053;-79
2022/10/02 05:37:01;;;;;;;5.63;0.43;;;;;;;12.58;100.00;101737.56;10428358;28;20088;-79
2022/10/02 05:42:28;;;;;;;0.88;0.40;;;;;;;12.60;100.00;101735.94;10428960;28;20429;-80
2022/10/02 05:47:36;;;;;;;0.25;0.22;;;;;;;12.51;100.00;101752.00;10420288;28;20072;-79
2022/10/02 05:52:49;;;;;;;0.22;0.20;;;;;;;12.56;100.00;101762.50;10427666;28;20097;-79
2022/10/02 05:57:56;;;;;;;0.25;0.10;;;;;;;12.48;100.00;101771.72;10399123;28;20476;-79
2022/10/02 06:03:03;;;;;;;0.43;0.40;;;;;;;12.33;100.00;101772.97;10421906;28;20391;-79
2022/10/02 06:08:08;;;;;;;1.08;0.47;;;;;;;12.44;100.00;101775.91;10404194;28;20041;-79
2022/10/02 06:13:23;;;;;;;2.58;0.70;;;;;;;12.47;100.00;101781.19;10421597;28;20168;-79
2022/10/02 06:18:33;;;;;;;0.88;0.60;;;;;;;12.81;100.00;101786.53;10445122;28;20049;-79
2022/10/02 06:23:41;;;;;;;0.68;0.55;;;;;;;13.14;100.00;101788.41;10424531;28;20461;-80
2022/10/02 06:28:59;;;;;;;0.65;0.47;;;;;;;13.16;100.00;101799.66;10419706;28;20038;-79
2022/10/02 06:34:00;;;;;;;0.30;0.13;;;;;;;13.18;100.00;101787.66;10403122;28;20095;-79
2022/10/02 06:39:05;;;;;;;0.55;0.45;;;;;;;13.16;100.00;101784.13;10387445;28;20046;-79
2022/10/02 06:44:19;;;;;;;0.22;0.22;;;;;;;13.20;100.00;101792.84;10389746;28;20053;-79
2022/10/02 06:49:45;;;;;;;2.40;0.52;;;;;;;13.27;100.00;101792.19;10421119;28;20137;-80
2022/10/02 06:55:06;;;;;;;1.30;0.32;;;;;;;13.49;100.00;101804.09;10434895;28;20041;-79
2022/10/02 07:00:15;;;;;;;1.98;1.33;;;;;;;13.41;100.00;101800.41;10432528;28;20472;-79
2022/10/02 07:06:06;;;;;;;1.40;0.60;;;;;;;13.43;100.00;101811.69;10431640;28;20494;-79
2022/10/02 07:11:26;;;;;;;0.05;0.05;;;;;;;13.51;100.00;101817.97;10426981;28;20053;-80
2022/10/02 07:16:28;;;;;;;;;;;;;;;13.61;100.00;101821.69;10402562;28;20580;-80
2022/10/02 07:21:38;;;;;;;0.03;0.03;;;;;;;13.67;100.00;101808.91;10419540;28;19921;-80
2022/10/02 07:26:48;;;;;;;;;;;;;;;14.03;100.00;101812.47;10399446;28;20137;-79
2022/10/02 07:31:52;;;;;;;1.80;0.20;;;;;;;14.39;100.00;101801.25;10404678;28;19952;-80
2022/10/02 07:37:26;;;;;;;0.45;0.40;;;;;;;14.67;100.00;101791.56;10442597;28;20390;-80
2022/10/02 07:42:58;;;;;;;2.55;1.58;;;;;;;14.87;100.00;101785.13;10401727;28;20045;-79
2022/10/02 07:48:37;;;;;;;0.10;0.10;;;;;;;14.69;100.00;101779.53;10433655;28;20079;-79
2022/10/02 07:53:47;;;;;;;1.65;0.47;;;;;;;14.77;100.00;101793.56;10434212;28;20136;-80
2022/10/02 07:59:03;;;;;;;;;;;;;;;14.91;100.00;101796.44;10439859;28;20043;-80
2022/10/02 08:04:23;;;;;;;0.00;0.00;;;;;;;14.61;100.00;101797.44;10432510;28;19963;-80
2022/10/02 08:09:36;;;;;;;0.32;0.20;;;;;;;15.20;100.00;101794.47;10423061;28;20068;-79
2022/10/02 08:14:45;;;;;;;0.00;0.00;;;;;;;15.19;100.00;101791.88;10414852;28;20116;-80
2022/10/02 08:19:50;;;;;;;0.82;0.13;;;;;;;15.62;100.00;101781.44;10414162;28;20477;-78
2022/10/02 08:25:01;;;;;;;0.00;0.00;;;;;;;16.08;100.00;101755.47;10405046;28;20044;-79
2022/10/02 08:30:05;;;;;;;0.10;0.10;;;;;;;16.21;100.00;101709.72;10399791;28;20457;-79
2022/10/02 08:35:18;;;;;;;1.08;0.45;;;;;;;16.74;100.00;101694.00;10399304;28;20128;-80
2022/10/02 08:40:41;;;;;;;0.30;0.30;;;;;;;16.54;100.00;101692.88;10416728;28;20051;-80
2022/10/02 08:46:02;;;;;;;0.77;0.43;;;;;;;16.45;100.00;101693.63;10456344;28;20044;-80
2022/10/02 08:51:21;;;;;;;1.00;0.45;;;;;;;16.39;100.00;101686.59;10421862;28;20041;-80
2022/10/02 08:56:29;;;;;;;1.73;0.15;;;;;;;16.54;100.00;101703.28;10415253;28;20037;-80
2022/10/02 09:01:56;;;;;;;0.20;0.20;;;;;;;16.28;100.00;101695.97;10416021;28;20545;-80
2022/10/02 09:07:22;;;;;;;0.20;0.20;;;;;;;16.50;100.00;101707.56;10415130;28;20521;-79
2022/10/02 09:13:00;;;;;;;0.00;0.00;;;;;;;17.34;100.00;101673.03;10375345;28;20045;-80
2022/10/02 09:18:29;;;;;;;0.75;0.10;;;;;;;16.96;100.00;101689.09;10420153;28;20125;-80
2022/10/02 09:23:54;;;;;;;0.20;0.13;;;;;;;16.88;100.00;101694.19;10381722;28;20034;-79
2022/10/02 09:29:16;;;;;;;0.00;0.00;;;;;;;17.08;100.00;101697.06;10415544;28;20398;-79
2022/10/02 09:34:50;;;;;;;0.15;0.00;;;;;;;16.87;100.00;101691.53;10437755;28;20500;-80
2022/10/02 09:40:40;;;;;;;2.08;0.22;;;;;;;16.99;100.00;101690.84;10451026;28;20061;-80
2022/10/02 09:46:12;;;;;;;0.03;0.03;;;;;;;17.50;100.00;101674.03;10430769;28;20100;-79
2022/10/02 09:51:42;;;;;;;0.03;0.03;;;;;;;17.29;100.00;101672.13;10443011;28;20045;-79
2022/10/02 09:57:27;;;;;;;0.40;0.40;;;;;;;17.45;100.00;101673.13;10451405;28;20442;-79
2022/10/02 10:02:52;;;;;;;0.30;0.22;;;;;;;18.06;100.00;101670.19;10438972;28;20140;-79
2022/10/02 10:08:23;;;;;;;0.00;0.00;;;;;;;18.02;100.00;101667.59;10421153;28;20064;-79
2022/10/02 10:13:59;;;;;;;3.15;0.45;;;;;;;17.96;100.00;101665.78;10451260;28;20490;-78
2022/10/02 10:19:02;;;;;;;1.55;0.10;;;;;;;17.54;100.00;101662.81;10454785;28;20073;-78
2022/10/02 10:24:19;;;;;;;0.20;0.20;;;;;;;18.01;100.00;101677.13;10420578;28;20120;-79
2022/10/02 10:29:44;;;;;;;0.30;0.10;;;;;;;17.89;100.00;101677.00;10421969;28;20065;-78
2022/10/02 10:35:10;;;;;;;0.40;0.40;;;;;;;16.77;100.00;101681.06;10403415;28;20069;-77
2022/10/02 10:40:24;;;;;;;0.00;0.00;;;;;;;17.48;100.00;101683.59;10418464;28;20080;-78
2022/10/02 10:45:51;;;;;;;0.15;0.10;;;;;;;18.30;100.00;101679.03;10382227;28;20078;-78
2022/10/02 10:51:31;;;;;;;0.00;0.00;;;;;;;17.88;100.00;101670.91;10379904;28;20052;-78
2022/10/02 10:56:38;;;;;;;0.00;0.00;;;;;;;17.87;100.00;101676.09;10418542;28;20073;-79
2022/10/02 11:02:14;;;;;;;0.00;0.00;;;;;;;17.69;100.00;101690.72;10403312;28;20485;-79
2022/10/02 11:07:41;;;;;;;0.47;0.35;;;;;;;17.48;100.00;101700.94;10422833;28;20124;-79
2022/10/02 11:13:03;;;;;;;0.17;0.10;;;;;;;17.77;100.00;101704.69;10435810;28;20125;-79
2022/10/02 11:18:37;;;;;;;0.20;0.10;;;;;;;17.88;100.00;101707.38;10433448;28;20507;-78
2022/10/02 11:24:12;;;;;;;0.00;0.00;;;;;;;17.89;100.00;101716.09;10435281;28;20103;-77
2022/10/02 11:29:32;;;;;;;0.10;0.10;;;;;;;18.87;100.00;101709.81;10454442;28;20046;-78
2022/10/02 11:35:15;;;;;;;0.00;0.00;;;;;;;18.87;100.00;101707.19;10422901;28;20083;-77
2022/10/02 11:40:55;;;;;;;0.03;0.03;;;;;;;18.86;100.00;101706.31;10441544;28;20053;-77
2022/10/02 11:46:13;;;;;;;3.72;1.52;;;;;;;17.99;100.00;101719.69;10442198;28;20044;-77
2022/10/02 11:51:35;;;;;;;0.10;0.00;;;;;;;17.55;100.00;101713.16;10439945;28;20077;-78
2022/10/02 11:56:59;;;;;;;8.00;0.63;;;;;;;17.54;100.00;101721.84;10443037;28;20049;-77
2022/10/02 12:02:16;;;;;;;1.55;0.20;;;;;;;17.10;100.00;101747.41;10467643;28;20053;-79
2022/10/02 12:07:34;;;;;;;0.00;0.00;;;;;;;17.10;100.00;101726.59;10465439;28;20041;-79
2022/10/02 12:12:50;;;;;;;0.55;0.35;;;;;;;17.61;100.00;101731.47;10472525;28;20041;-79
2022/10/02 12:18:09;;;;;;;0.10;0.10;;;;;;;17.52;100.00;101724.44;10452724;28;20140;-78
2022/10/02 12:29:11;;;;;;;0.00;0.00;;;;;;;17.89;100.00;101724.78;10464572;28;20397;-78
2022/10/02 12:34:37;;;;;;;0.00;0.00;;;;;;;17.70;100.00;101721.13;10447279;28;20057;-80
2022/10/02 12:39:50;;;;;;;0.00;0.00;;;;;;;17.82;100.00;101722.13;10418778;28;20042;-79
2022/10/02 12:45:22;;;;;;;0.32;0.28;;;;;;;18.92;100.00;101731.59;10429814;28;20048;-80
2022/10/02 12:50:52;;;;;;;0.05;0.05;;;;;;;19.43;100.00;101726.56;10435854;28;20080;-80
2022/10/02 12:56:05;;;;;;;0.00;0.00;;;;;;;18.38;100.00;101737.38;10435278;28;20048;-79
2022/10/02 13:01:38;;;;;;;0.17;0.00;;;;;;;17.73;100.00;101743.75;10417920;28;20481;-79
2022/10/02 13:07:29;;;;;;;0.00;0.00;;;;;;;18.59;100.00;101748.78;10421336;28;20053;-80
2022/10/02 13:12:55;;;;;;;0.00;0.00;;;;;;;18.00;100.00;101752.72;10391089;28;20046;-79
2022/10/02 13:18:09;;;;;;;0.10;0.10;;;;;;;18.08;100.00;101745.84;10457925;28;20080;-78
2022/10/02 13:23:31;;;;;;;0.03;0.00;;;;;;;18.79;100.00;101746.31;10430789;28;20045;-79
2022/10/02 13:28:49;;;;;;;0.20;0.10;;;;;;;18.73;100.00;101748.03;10429186;28;20052;-79
2022/10/02 13:34:01;;;;;;;0.47;0.47;;;;;;;19.00;100.00;101748.19;10389129;28;20077;-78
2022/10/02 13:39:30;;;;;;;0.00;0.00;;;;;;;18.84;100.00;101752.41;10416183;28;20049;-78
2022/10/02 13:44:53;;;;;;;0.10;0.10;;;;;;;18.68;100.00;101763.66;10446218;28;20052;-79
2022/10/02 13:50:00;;;;;;;0.68;0.55;;;;;;;19.74;100.00;101752.72;10416035;28;20464;-79
2022/10/02 13:55:17;;;;;;;1.75;0.55;;;;;;;17.63;100.00;101771.44;10432255;28;20071;-78
2022/10/02 14:00:36;;;;;;;0.00;0.00;;;;;;;17.20;100.00;101783.97;10432657;28;20041;-79
2022/10/02 14:05:59;;;;;;;0.10;0.00;;;;;;;16.90;100.00;101800.91;10432485;28;20373;-78
2022/10/02 14:11:05;;;;;;;0.17;0.10;;;;;;;16.91;100.00;101800.06;10430938;28;20022;-79
2022/10/02 14:16:47;;;;;;;0.93;0.77;;;;;;;16.63;100.00;101807.47;10430095;28;20053;-79
2022/10/02 14:22:19;;;;;;;0.10;0.00;;;;;;;16.57;100.00;101804.78;10422860;28;20060;-78
2022/10/02 14:27:52;;;;;;;0.38;0.20;;;;;;;16.54;100.00;101809.94;10437090;28;20069;-77
2022/10/02 14:33:22;;;;;;;0.00;0.00;;;;;;;17.36;100.00;101817.19;10436982;28;20045;-78
2022/10/02 14:38:26;;;;;;;0.00;0.00;;;;;;;17.29;100.00;101815.34;10395797;28;20483;-78
2022/10/02 14:43:54;;;;;;;0.22;0.00;;;;;;;17.29;100.00;101816.22;10464353;28;20057;-78
2022/10/02 14:49:12;;;;;;;3.65;0.15;;;;;;;17.39;100.00;101819.81;10435188;28;20037;-78
2022/10/02 14:54:57;;;;;;;0.45;0.28;;;;;;;17.69;100.00;101822.75;10437658;28;20120;-77
2022/10/02 15:00:10;;;;;;;0.30;0.25;;;;;;;17.26;100.00;101828.31;10409692;28;20046;-78
2022/10/02 15:05:42;;;;;;;0.10;0.10;;;;;;;17.49;100.00;101830.34;10435209;28;20052;-79
2022/10/02 15:10:48;;;;;;;0.10;0.10;;;;;;;17.14;100.00;101836.84;10443994;28;20528;-77
2022/10/02 15:21:27;;;;;;;0.00;0.00;;;;;;;17.35;100.00;101846.69;10435787;28;20124;-79
2022/10/02 15:26:51;;;;;;;0.00;0.00;;;;;;;17.34;100.00;101855.34;10460323;28;20041;-78
2022/10/02 15:32:27;;;;;;;0.10;0.10;;;;;;;17.29;100.00;101857.03;10391702;28;20050;-78
2022/10/02 15:37:50;;;;;;;2.78;0.22;;;;;;;17.08;100.00;101863.69;10433831;28;20056;-78
2022/10/02 15:42:55;;;;;;;0.00;0.00;;;;;;;16.74;100.00;101870.94;10418321;28;20056;-77
2022/10/02 15:48:18;;;;;;;0.00;0.00;;;;;;;16.74;100.00;101877.88;10418817;28;20037;-79
2022/10/02 15:54:04;;;;;;;0.52;0.32;;;;;;;16.60;100.00;101880.25;10415160;28;20073;-78
2022/10/02 15:59:40;;;;;;;1.80;0.65;;;;;;;16.74;100.00;101889.16;10427013;28;20084;-78
2022/10/02 16:05:19;;;;;;;0.43;0.43;;;;;;;16.38;100.00;101898.09;10423213;28;20076;-79
2022/10/02 16:10:48;;;;;;;0.35;0.10;;;;;;;16.03;100.00;101913.94;10430664;28;20070;-77
2022/10/02 16:15:53;;;;;;;0.00;0.00;;;;;;;15.77;100.00;101923.75;10432334;28;20053;-78
2022/10/02 16:21:11;;;;;;;0.22;0.22;;;;;;;15.90;100.00;101938.78;10414971;28;20052;-78
2022/10/02 16:27:04;;;;;;;0.00;0.00;;;;;;;15.82;100.00;101935.97;10431585;28;20049;-77
2022/10/02 16:32:21;;;;;;;0.08;0.08;;;;;;;15.52;100.00;101951.81;10431337;28;20041;-78
2022/10/02 16:37:43;;;;;;;0.00;0.00;;;;;;;15.21;100.00;101962.38;10415922;28;20069;-77
2022/10/02 16:43:30;;;;;;;0.00;0.00;;;;;;;15.01;100.00;101969.69;10395614;28;20048;-78
2022/10/02 16:48:45;;;;;;;0.10;0.10;;;;;;;14.93;100.00;101981.56;10420040;28;20541;-77
2022/10/02 17:00:10;;;;;;;0.45;0.15;;;;;;;14.77;100.00;102006.25;10405906;28;20144;-78
2022/10/02 17:05:23;;;;;;;;;;;;;;;14.43;100.00;102024.34;10393651;28;20068;-78
2022/10/02 17:10:28;;;;;;;0.00;0.00;;;;;;;14.46;100.00;102038.22;10414573;28;20007;-77
2022/10/02 17:15:54;;;;;;;0.10;0.10;;;;;;;14.13;100.00;102045.06;10407191;28;20049;-77
2022/10/02 17:21:06;;;;;;;0.00;0.00;;;;;;;13.85;100.00;102062.38;10427525;28;20048;-77
2022/10/02 17:26:39;;;;;;;0.00;0.00;;;;;;;13.64;100.00;102075.53;10415789;28;20124;-77
2022/10/02 17:32:07;;;;;;;0.30;0.20;;;;;;;13.42;100.00;102092.06;10412049;28;20049;-77
2022/10/02 17:37:58;;;;;;;0.00;0.00;;;;;;;13.46;100.00;102096.50;10381292;28;20137;-77
2022/10/02 17:43:19;;;;;;;0.00;0.00;;;;;;;13.41;100.00;102109.31;10390099;28;20104;-77
2022/10/02 17:48:34;;;;;;;0.00;0.00;;;;;;;13.46;100.00;102114.63;10402944;28;20495;-77
2022/10/02 18:00:01;;;;;;;0.47;0.08;;;;;;;13.35;100.00;102136.69;10407781;28;20079;-78
2022/10/02 18:05:42;;;;;;;0.00;0.00;;;;;;;13.13;100.00;102146.28;10394272;28;20053;-77
2022/10/02 18:11:08;;;;;;;0.17;0.17;;;;;;;12.67;100.00;102161.88;10426533;28;20120;-77
2022/10/02 18:16:12;;;;;;;0.30;0.13;;;;;;;12.48;100.00;102180.09;10438810;28;20113;-77
2022/10/02 18:21:37;;;;;;;0.00;0.00;;;;;;;12.30;100.00;102193.19;10422539;28;20120;-77
2022/10/02 18:33:13;;;;;;;0.00;0.00;;;;;;;11.65;100.00;102224.97;10430213;28;20046;-77
2022/10/02 18:38:59;;;;;;;0.05;0.05;;;;;;;11.86;100.00;102232.72;10430465;28;20092;-77
2022/10/02 18:44:19;;;;;;;1.38;0.30;;;;;;;11.91;100.00;102241.53;10426897;28;20446;-77
2022/10/02 18:49:40;;;;;;;0.00;0.00;;;;;;;11.83;100.00;102247.22;10422810;28;20120;-77
2022/10/02 18:55:15;;;;;;;1.65;0.10;;;;;;;11.78;100.00;102256.47;10431588;28;20059;-77
2022/10/02 19:00:46;;;;;;;0.00;0.00;;;;;;;11.77;100.00;102259.88;10432175;28;20037;-77
2022/10/02 19:05:54;;;;;;;;;;;;;;;11.67;100.00;102276.66;10421062;28;20038;-77
2022/10/02 19:10:56;;;;;;;0.00;0.00;;;;;;;11.82;100.00;102269.59;10419919;28;19928;-77
2022/10/02 19:16:14;;;;;;;0.70;0.20;;;;;;;11.71;100.00;102265.66;10420305;28;20452;-77
2022/10/02 19:21:20;;;;;;;0.00;0.00;;;;;;;11.61;100.00;102274.69;10432333;28;20443;-76
2022/10/02 19:26:24;;;;;;;0.00;0.00;;;;;;;11.22;100.00;102288.47;10427912;28;20045;-77
2022/10/02 19:31:28;;;;;;;0.50;0.25;;;;;;;10.80;100.00;102321.75;10401316;28;20497;-77
2022/10/02 19:42:49;;;;;;;0.10;0.10;;;;;;;11.20;100.00;102320.19;10412291;28;20055;-77
2022/10/02 19:47:55;;;;;;;0.20;0.00;;;;;;;11.14;100.00;102318.19;10399300;28;20124;-77
2022/10/02 19:53:14;;;;;;;0.35;0.17;;;;;;;11.16;100.00;102331.16;10401583;28;20438;-77
2022/10/02 19:58:20;;;;;;;3.20;0.65;;;;;;;11.16;100.00;102342.38;10409425;28;20069;-77
2022/10/02 20:03:23;;;;;;;0.40;0.30;;;;;;;10.93;100.00;102354.16;10398736;28;20049;-77
2022/10/02 20:08:29;;;;;;;4.30;0.40;;;;;;;10.70;100.00;102365.97;10394548;28;20132;-77
2022/10/02 20:13:57;;;;;;;0.22;0.08;;;;;;;10.94;100.00;102369.75;10383956;28;20041;-77
2022/10/02 20:19:30;;;;;;;0.88;0.20;;;;;;;10.97;100.00;102374.16;10410258;28;20124;-77
2022/10/02 20:24:41;;;;;;;0.20;0.10;;;;;;;10.97;100.00;102381.00;10399900;28;20047;-77
2022/10/02 20:29:48;;;;;;;0.00;0.00;;;;;;;11.04;100.00;102389.09;10416831;28;20045;-77
2022/10/02 20:34:55;;;;;;;1.70;0.75;;;;;;;11.11;100.00;102403.16;10396166;28;20124;-77
2022/10/02 20:40:06;;;;;;;0.13;0.13;;;;;;;11.23;100.00;102397.72;10402227;28;20037;-77
2022/10/02 20:45:12;;;;;;;0.22;0.17;;;;;;;11.13;100.00;102405.84;10419033;28;20134;-77
2022/10/02 20:50:39;;;;;;;0.10;0.10;;;;;;;11.15;100.00;102415.41;10386271;28;20399;-77
2022/10/02 20:56:05;;;;;;;0.20;0.10;;;;;;;10.93;100.00;102426.38;10409874;28;20048;-77
2022/10/02 21:01:20;;;;;;;1.85;0.28;;;;;;;10.89;100.00;102424.47;10445907;28;20142;-77
2022/10/02 21:06:49;;;;;;;6.75;1.40;;;;;;;10.98;100.00;102432.66;10445555;28;20121;-77
2022/10/02 21:12:09;;;;;;;1.42;0.60;;;;;;;10.89;100.00;102425.34;10439001;28;20046;-77
2022/10/02 21:17:50;;;;;;;0.52;0.20;;;;;;;10.90;100.00;102432.28;10420049;28;20140;-77
2022/10/02 21:23:25;;;;;;;0.00;0.00;;;;;;;10.19;100.00;102453.53;10413509;28;20049;-77
2022/10/02 21:29:10;;;;;;;0.75;0.22;;;;;;;10.32;100.00;102469.72;10414544;28;20063;-77
2022/10/02 21:34:40;;;;;;;1.27;0.10;;;;;;;10.45;100.00;102494.47;10409677;28;20454;-77
2022/10/02 21:40:14;;;;;;;3.60;0.87;;;;;;;10.41;100.00;102501.97;10401666;28;20603;-77
2022/10/02 21:45:38;;;;;;;0.10;0.10;;;;;;;10.48;100.00;102517.81;10379400;28;20457;-77
2022/10/02 21:51:01;;;;;;;0.00;0.00;;;;;;;10.63;100.00;102524.56;10408025;28;20069;-78
2022/10/02 21:56:29;;;;;;;0.00;0.00;;;;;;;10.65;100.00;102528.13;10407472;28;20068;-77
2022/10/02 22:01:33;;;;;;;1.38;0.30;;;;;;;10.57;100.00;102522.59;10411569;28;20039;-77
2022/10/02 22:07:14;;;;;;;0.00;0.00;;;;;;;10.41;100.00;102538.03;10416167;28;20042;-77
2022/10/02 22:12:38;;;;;;;0.00;0.00;;;;;;;10.33;100.00;102535.00;10385735;28;20070;-77
2022/10/02 22:17:57;;;;;;;1.40;0.57;;;;;;;10.37;100.00;102547.28;10403591;28;20041;-77
2022/10/02 22:23:20;;;;;;;0.10;0.10;;;;;;;10.38;100.00;102546.50;10393436;28;20046;-77
2022/10/02 22:28:33;;;;;;;0.00;0.00;;;;;;;10.37;100.00;102548.97;10392662;28;20042;-77
2022/10/02 22:34:01;;;;;;;0.13;0.10;;;;;;;10.12;100.00;102540.78;10403025;28;20064;-77
2022/10/02 22:39:25;;;;;;;0.10;0.10;;;;;;;10.24;100.00;102565.44;10430001;28;20077;-76
2022/10/02 22:44:38;;;;;;;0.00;0.00;;;;;;;10.25;100.00;102574.91;10453607;28;20140;-77
2022/10/02 22:50:02;;;;;;;0.90;0.20;;;;;;;10.32;100.00;102580.50;10424206;28;20400;-77
2022/10/02 22:55:06;;;;;;;0.00;0.00;;;;;;;10.26;100.00;102587.91;10403172;28;20055;-77
2022/10/02 23:00:16;;;;;;;0.65;0.20;;;;;;;10.13;100.00;102594.06;10419659;28;20132;-77
2022/10/02 23:05:32;;;;;;;0.10;0.10;;;;;;;10.18;100.00;102581.44;10416497;28;20045;-77
2022/10/02 23:10:45;;;;;;;0.00;0.00;;;;;;;10.26;100.00;102587.00;10448460;28;20049;-77
2022/10/02 23:15:56;;;;;;;0.10;0.10;;;;;;;10.39;100.00;102571.44;10422025;28;20180;-77
2022/10/02 23:21:23;;;;;;;0.10;0.10;;;;;;;10.36;100.00;102570.34;10404541;28;20042;-77
2022/10/02 23:26:34;;;;;;;0.25;0.15;;;;;;;10.29;100.00;102564.00;10404522;28;20483;-77
2022/10/02 23:31:44;;;;;;;0.00;0.00;;;;;;;10.34;100.00;102562.53;10445358;28;20049;-76
2022/10/02 23:36:54;;;;;;;0.15;0.13;;;;;;;10.23;100.00;102571.41;10402203;28;20128;-76
2022/10/02 23:41:58;;;;;;;0.15;0.15;;;;;;;10.26;100.00;102574.13;10418260;28;20401;-77
2022/10/02 23:47:13;;;;;;;0.38;0.38;;;;;;;9.97;100.00;102576.00;10431182;28;20045;-77
2022/10/02 23:52:36;;;;;;;0.20;0.15;;;;;;;9.92;100.00;102574.88;10408028;28;20053;-77
2022/10/02 23:57:50;;;;;;;0.00;0.00;;;;;;;9.96;100.00;102580.28;10432125;28;20091;-77
